createdAt,value
2023-05-25T00:03:33.212Z,100258.66
2023-05-25T00:07:45.746Z,100242.50
2023-05-25T00:11:59.999Z,100244.59
2023-05-25T00:16:12.483Z,100247.38
2023-05-25T00:20:25.018Z,100246.31
2023-05-25T00:24:38.065Z,100245.16
2023-05-25T00:28:50.675Z,100251.03
2023-05-25T00:33:03.382Z,100251.22
2023-05-25T00:37:16.644Z,100251.44
2023-05-25T00:41:29.306Z,100264.09
2023-05-25T00:45:41.839Z,100256.38
2023-05-25T00:49:54.846Z,100257.44
2023-05-25T00:54:07.728Z,100260.00
2023-05-25T00:58:22.588Z,100266.13
2023-05-25T01:02:36.143Z,100262.06
2023-05-25T01:06:49.810Z,100269.38
2023-05-25T01:11:05.174Z,100268.94
2023-05-25T01:15:18.201Z,100266.00
2023-05-25T01:19:33.924Z,100267.00
2023-05-25T01:24:08.716Z,100266.06
2023-05-25T01:28:30.278Z,100265.59
2023-05-25T01:32:43.760Z,100271.97
2023-05-25T01:36:56.946Z,100260.88
2023-05-25T01:41:09.376Z,100257.47
2023-05-25T01:45:22.039Z,100260.16
2023-05-25T01:50:03.609Z,100269.78
2023-05-25T01:54:20.285Z,100264.94
2023-05-25T01:58:44.094Z,100263.00
2023-05-25T02:02:56.840Z,100263.91
2023-05-25T02:07:11.470Z,100262.88
2023-05-25T02:11:23.939Z,100248.63
2023-05-25T02:15:36.310Z,100263.75
2023-05-25T02:19:53.300Z,100266.53
2023-05-25T02:24:06.879Z,100263.34
2023-05-25T02:28:19.392Z,100254.72
2023-05-25T02:32:33.933Z,100264.75
2023-05-25T02:36:47.905Z,100266.94
2023-05-25T02:41:00.483Z,100270.72
2023-05-25T02:45:13.189Z,100269.81
2023-05-25T02:49:26.662Z,100264.59
2023-05-25T02:53:39.145Z,100271.75
2023-05-25T02:57:52.183Z,100268.50
2023-05-25T03:02:21.627Z,100264.00
2023-05-25T03:06:36.886Z,100266.56
2023-05-25T03:10:56.437Z,100274.22
2023-05-25T03:15:09.673Z,100267.53
2023-05-25T03:19:22.268Z,100269.25
2023-05-25T03:23:34.682Z,100267.72
2023-05-25T03:27:54.616Z,100271.00
2023-05-25T03:32:07.526Z,100263.22
2023-05-25T03:36:22.566Z,100269.81
2023-05-25T03:40:34.957Z,100264.06
2023-05-25T03:44:47.472Z,100271.81
2023-05-25T03:49:00.204Z,100271.88
2023-05-25T03:53:12.535Z,100270.19
2023-05-25T03:57:24.927Z,100282.72
2023-05-25T04:01:39.227Z,100273.13
2023-05-25T04:05:51.627Z,100274.41
2023-05-25T04:10:04.928Z,100277.81
2023-05-25T04:14:17.622Z,100274.16
2023-05-25T04:18:30.053Z,100271.50
2023-05-25T04:22:44.212Z,100273.59
2023-05-25T04:26:57.015Z,100273.47
2023-05-25T04:31:09.668Z,100272.75
2023-05-25T04:35:51.511Z,100278.56
2023-05-25T04:40:09.304Z,100277.88
2023-05-25T04:44:21.936Z,100280.53
2023-05-25T04:48:38.759Z,100281.19
2023-05-25T04:52:51.441Z,100283.66
2023-05-25T04:57:04.121Z,100285.22
2023-05-25T05:01:17.356Z,100286.78
2023-05-25T05:05:30.213Z,100288.88
2023-05-25T05:09:44.987Z,100298.28
2023-05-25T05:13:57.592Z,100296.16
2023-05-25T05:18:10.089Z,100304.69
2023-05-25T05:22:22.727Z,100300.03
2023-05-25T05:26:48.222Z,100297.41
2023-05-25T05:31:12.580Z,100305.97
2023-05-25T05:35:26.530Z,100303.28
2023-05-25T05:39:46.748Z,100296.34
2023-05-25T05:43:59.236Z,100303.31
2023-05-25T05:48:11.671Z,100305.56
2023-05-25T05:52:24.299Z,100308.25
2023-05-25T05:56:36.615Z,100312.13
2023-05-25T06:00:50.061Z,100298.09
2023-05-25T06:05:03.365Z,100306.09
2023-05-25T06:09:16.916Z,100307.38
2023-05-25T06:13:30.562Z,100312.66
2023-05-25T06:17:44.160Z,100304.19
2023-05-25T06:21:58.411Z,100316.25
2023-05-25T06:26:11.604Z,100313.09
2023-05-25T06:30:24.120Z,100321.78
2023-05-25T06:34:38.263Z,100316.28
2023-05-25T06:38:51.250Z,100313.25
2023-05-25T06:43:03.946Z,100317.91
2023-05-25T06:47:56.022Z,100323.31
2023-05-25T06:52:08.760Z,100320.78
2023-05-25T06:56:21.829Z,100322.16
2023-05-25T07:00:36.058Z,100320.63
2023-05-25T07:04:48.578Z,100321.53
2023-05-25T07:09:01.105Z,100323.59
2023-05-25T07:13:14.939Z,100315.16
2023-05-25T07:17:31.931Z,100322.06
2023-05-25T07:21:46.792Z,100321.91
2023-05-25T07:25:59.378Z,100323.78
2023-05-25T07:30:12.371Z,100314.00
2023-05-25T07:34:26.505Z,100325.16
2023-05-25T07:38:41.460Z,100337.19
2023-05-25T07:42:54.357Z,100333.16
2023-05-25T07:47:07.378Z,100322.94
2023-05-25T07:51:19.787Z,100338.41
2023-05-25T07:55:33.545Z,100334.09
2023-05-25T07:59:47.889Z,100335.41
2023-05-25T08:04:00.603Z,100338.13
2023-05-25T08:08:18.443Z,100339.88
2023-05-25T08:12:46.976Z,100334.56
2023-05-25T08:17:03.070Z,100337.28
2023-05-25T08:21:16.255Z,100327.69
2023-05-25T08:25:28.653Z,100324.41
2023-05-25T08:29:41.464Z,100329.00
2023-05-25T08:33:53.876Z,100327.47
2023-05-25T08:38:06.334Z,100329.88
2023-05-25T08:42:18.868Z,100329.84
2023-05-25T08:46:31.881Z,100324.63
2023-05-25T08:50:45.193Z,100323.34
2023-05-25T08:55:01.677Z,100321.63
2023-05-25T08:59:39.041Z,100331.38
2023-05-25T09:03:52.215Z,100327.03
2023-05-25T09:08:09.126Z,100324.47
2023-05-25T09:12:23.156Z,100320.63
2023-05-25T09:16:38.102Z,100318.38
2023-05-25T09:20:50.726Z,100308.53
2023-05-25T09:25:08.740Z,100305.53
2023-05-25T09:29:22.127Z,100304.69
2023-05-25T09:33:36.252Z,100297.47
2023-05-25T09:37:49.737Z,100300.19
2023-05-25T09:42:05.336Z,100305.06
2023-05-25T09:46:18.526Z,100308.69
2023-05-25T09:50:32.957Z,100305.97
2023-05-25T09:54:46.906Z,100294.16
2023-05-25T09:59:00.206Z,100281.78
2023-05-25T10:03:15.621Z,100286.75
2023-05-25T10:07:29.506Z,100286.66
2023-05-25T10:11:44.402Z,100281.03
2023-05-25T10:15:58.871Z,100273.53
2023-05-25T10:20:12.300Z,100277.25
2023-05-25T10:24:38.751Z,100270.50
2023-05-25T10:28:53.091Z,100271.56
2023-05-25T10:33:06.350Z,100275.38
2023-05-25T10:37:19.232Z,100269.91
2023-05-25T10:41:33.030Z,100264.34
2023-05-25T10:45:45.698Z,100261.13
2023-05-25T10:50:01.962Z,100247.34
2023-05-25T10:54:15.401Z,100246.47
2023-05-25T10:58:29.277Z,100229.75
2023-05-25T11:02:55.818Z,100233.41
2023-05-25T11:07:14.556Z,100215.09
2023-05-25T11:11:47.982Z,100227.75
2023-05-25T11:16:15.661Z,100231.34
2023-05-25T11:20:30.406Z,100231.00
2023-05-25T11:24:46.724Z,100221.78
2023-05-25T11:29:00.721Z,100218.22
2023-05-25T11:33:13.643Z,100214.66
2023-05-25T11:37:32.055Z,100212.94
2023-05-25T11:41:50.530Z,100208.47
2023-05-25T11:46:03.252Z,100212.19
2023-05-25T11:50:17.509Z,100214.25
2023-05-25T11:54:31.745Z,100217.75
2023-05-25T11:58:50.944Z,100210.38
2023-05-25T12:03:03.554Z,100215.81
2023-05-25T12:07:16.123Z,100216.06
2023-05-25T12:11:32.747Z,100208.88
2023-05-25T12:15:48.931Z,100203.75
2023-05-25T12:20:03.613Z,100204.59
2023-05-25T12:24:18.362Z,100208.47
2023-05-25T12:28:30.787Z,100208.91
2023-05-25T12:33:05.423Z,100212.97
2023-05-25T12:37:22.631Z,100225.19
2023-05-25T12:41:56.096Z,100250.53
2023-05-25T12:46:09.753Z,100241.44
2023-05-25T12:50:23.341Z,100226.50
2023-05-25T12:54:46.839Z,100209.84
2023-05-25T12:59:23.848Z,100228.38
2023-05-25T13:03:40.548Z,100231.00
2023-05-25T13:07:54.483Z,100228.69
2023-05-25T13:12:07.519Z,100226.78
2023-05-25T13:16:20.044Z,100224.50
2023-05-25T13:20:32.991Z,100229.03
2023-05-25T13:24:45.472Z,100237.75
2023-05-25T13:28:59.239Z,100251.56
2023-05-25T13:33:11.814Z,100264.44
2023-05-25T13:37:26.515Z,100268.63
2023-05-25T13:41:38.904Z,100260.00
2023-05-25T13:45:51.545Z,100251.97
2023-05-25T13:50:04.930Z,100257.00
2023-05-25T13:54:19.015Z,100266.69
2023-05-25T13:58:31.476Z,100256.09
2023-05-25T14:02:44.013Z,100262.31
2023-05-25T14:06:57.349Z,100259.56
2023-05-25T14:11:09.922Z,100262.53
2023-05-25T14:15:22.524Z,100274.63
2023-05-25T14:19:35.521Z,100279.47
2023-05-25T14:23:47.905Z,100288.50
2023-05-25T14:28:00.283Z,100302.81
2023-05-25T14:32:12.663Z,100302.63
2023-05-25T14:36:25.069Z,100314.75
2023-05-25T14:40:37.394Z,100313.13
2023-05-25T14:44:49.724Z,100321.50
2023-05-25T14:49:02.234Z,100325.88
2023-05-25T14:53:17.730Z,100334.03
2023-05-25T14:57:30.252Z,100329.78
2023-05-25T15:01:42.689Z,100330.50
2023-05-25T15:05:55.081Z,100325.69
2023-05-25T15:10:11.162Z,100327.38
2023-05-25T15:14:23.600Z,100318.78
2023-05-25T15:18:36.048Z,100320.16
2023-05-25T15:22:48.484Z,100317.06
2023-05-25T15:27:01.810Z,100292.72
2023-05-25T15:31:14.284Z,100295.81
2023-05-25T15:35:31.376Z,100304.91
2023-05-25T15:39:44.033Z,100294.56
2023-05-25T15:44:01.476Z,100288.84
2023-05-25T15:48:13.959Z,100290.75
2023-05-25T15:52:26.384Z,100298.22
2023-05-25T15:56:41.865Z,100299.59
2023-05-25T16:00:57.492Z,100299.63
2023-05-25T16:05:13.061Z,100302.72
2023-05-25T16:09:25.597Z,100299.03
2023-05-25T16:13:38.167Z,100300.72
2023-05-25T16:17:50.703Z,100296.66
2023-05-25T16:22:03.085Z,100297.91
2023-05-25T16:26:16.630Z,100285.09
2023-05-25T16:30:29.059Z,100281.66
2023-05-25T16:34:41.398Z,100286.09
2023-05-25T16:38:56.628Z,100285.03
2023-05-25T16:43:10.799Z,100284.28
2023-05-25T16:47:23.210Z,100276.28
2023-05-25T16:51:35.606Z,100276.53
2023-05-25T16:55:48.072Z,100272.22
2023-05-25T17:00:00.628Z,100270.38
2023-05-25T17:04:12.989Z,100273.53
2023-05-25T17:08:25.462Z,100283.72
2023-05-25T17:12:37.845Z,100276.16
2023-05-25T17:16:50.370Z,100281.81
2023-05-25T17:21:02.895Z,100286.88
2023-05-25T17:25:15.388Z,100292.44
2023-05-25T17:29:32.187Z,100297.91
2023-05-25T17:33:44.554Z,100288.28
2023-05-25T17:37:57.434Z,100296.94
2023-05-25T17:42:10.102Z,100285.47
2023-05-25T17:46:25.044Z,100279.75
2023-05-25T17:50:38.390Z,100281.72
2023-05-25T17:54:50.872Z,100288.97
2023-05-25T17:59:03.852Z,100291.91
2023-05-25T18:03:16.447Z,100299.63
2023-05-25T18:07:28.951Z,100293.41
2023-05-25T18:11:41.441Z,100300.47
2023-05-25T18:15:54.320Z,100291.28
2023-05-25T18:20:10.402Z,100286.81
2023-05-25T18:24:23.356Z,100291.97
2023-05-25T18:28:38.123Z,100296.81
2023-05-25T18:32:50.862Z,100290.00
2023-05-25T18:37:06.054Z,100301.72
2023-05-25T18:41:21.208Z,100301.06
2023-05-25T18:45:35.722Z,100307.13
2023-05-25T18:49:48.162Z,100316.47
2023-05-25T18:54:10.713Z,100320.63
2023-05-25T18:58:28.437Z,100313.78
2023-05-25T19:02:41.327Z,100314.78
2023-05-25T19:06:59.328Z,100334.31
2023-05-25T19:11:11.799Z,100336.88
2023-05-25T19:15:27.312Z,100347.94
2023-05-25T19:19:39.776Z,100354.16
2023-05-25T19:23:52.676Z,100360.06
2023-05-25T19:28:05.299Z,100353.13
2023-05-25T19:32:26.818Z,100351.78
2023-05-25T19:36:44.775Z,100352.31
2023-05-25T19:40:57.269Z,100340.41
2023-05-25T19:45:10.360Z,100338.00
2023-05-25T19:49:22.791Z,100346.19
2023-05-25T19:53:35.352Z,100338.47
2023-05-25T19:57:47.872Z,100346.66
2023-05-25T20:02:00.439Z,100345.81
2023-05-25T20:06:15.919Z,100344.06
2023-05-25T20:10:28.503Z,100354.78
2023-05-25T20:14:41.027Z,100346.06
2023-05-25T20:18:53.600Z,100350.31
2023-05-25T20:23:06.487Z,100356.28
2023-05-25T20:27:19.078Z,100356.91
2023-05-25T20:31:32.769Z,100358.00
2023-05-25T20:35:46.747Z,100356.16
2023-05-25T20:40:03.815Z,100353.81
2023-05-25T20:44:16.525Z,100358.09
2023-05-25T20:48:28.887Z,100342.75
2023-05-25T20:52:41.944Z,100341.81
2023-05-25T20:56:54.455Z,100333.34
2023-05-25T21:01:06.992Z,100330.72
2023-05-25T21:05:19.554Z,100330.22
2023-05-25T21:09:32.001Z,100322.31
2023-05-25T21:13:44.539Z,100319.97
2023-05-25T21:17:56.992Z,100327.97
2023-05-25T21:22:11.530Z,100337.06
2023-05-25T21:26:23.952Z,100327.09
2023-05-25T21:30:36.528Z,100322.63
2023-05-25T21:34:49.514Z,100317.56
2023-05-25T21:39:01.932Z,100322.16
2023-05-25T21:43:14.329Z,100323.56
2023-05-25T21:47:26.807Z,100313.97
2023-05-25T21:51:39.458Z,100310.09
2023-05-25T21:55:53.171Z,100318.28
2023-05-25T22:00:06.886Z,100296.41
2023-05-25T22:04:29.426Z,100311.53
2023-05-25T22:08:41.953Z,100317.25
2023-05-25T22:12:54.377Z,100307.75
2023-05-25T22:17:07.480Z,100308.97
2023-05-25T22:21:20.112Z,100307.28
2023-05-25T22:25:32.450Z,100305.31
2023-05-25T22:29:45.081Z,100301.66
2023-05-25T22:33:58.252Z,100299.38
2023-05-25T22:38:11.581Z,100300.63
2023-05-25T22:42:24.004Z,100289.34
2023-05-25T22:46:36.541Z,100285.28
2023-05-25T22:50:49.231Z,100293.59
2023-05-25T22:55:01.964Z,100286.88
2023-05-25T22:59:14.487Z,100289.91
2023-05-25T23:03:27.167Z,100284.00
2023-05-25T23:07:39.605Z,100285.97
2023-05-25T23:11:57.198Z,100288.13
2023-05-25T23:16:12.398Z,100288.09
2023-05-25T23:20:25.177Z,100278.25
2023-05-25T23:24:38.120Z,100293.53
2023-05-25T23:28:50.663Z,100274.88
2023-05-25T23:33:03.102Z,100281.53
2023-05-25T23:43:38.084Z,100264.81
2023-05-25T23:47:50.821Z,100263.75
2023-05-25T23:52:03.372Z,100260.94
2023-05-25T23:56:15.810Z,100254.38
